PWSweather.com
Personal Weather Stations
Station Observations
REBOX73
Petalia At Mount Pantokrator, CorfuGR 49081

Petalia At Mount PantokratorCorfuGR 49081

Lat: 39.747915, Lon: 19.841466

Elevation: 2132

Station Type: ws1080

http://pantokratoras-kerkyra.meteoclub.gr/

Latest ConditionsUpdated 11:45:01 PM GMT+01:01 Monday, Oct 20, 2014
Currently Today's Max Today's Min Today's Average
Temperature 53.2°F11.8°C 67.6°F19.8°C 49.6°F9.8°C 58.0°F14.4°C
Dew Point 51.0°F10.6°C 65.6°F18.7°C 49.4°F9.7°C 55.8°F13.2°C
Winds 0.3 mph NNW0.5 kmh NNW 4.6 mph SSW7.4 kmh SSW - 1.4 mph 2.3 kmh
Wind Gusts 1.6 mph2.6 kmh 6.9 mph11.1 kmh - -
Humidity 92% 100% 71% 93%
Pressure 30.04 in1017.3 mb 30.21 in1023.0 mb 30.04 in1017.3 mb -
Hour Temp Dew Point Humidity Winds Wind Gusts Pressure Precip Precip Rate Daily Precip Total
11:45 PM 53.2°F11.8°C 51.0°F10.6°C 92% 0.3 mph NNW0.5 kmh NNW 1.6 mph2.6 kmh 30.04 in1017.3 mb 0.00 in0.0 mm 0.00 in/hr0.0 mm/hr 0.01 in0.3 mm
11:30 PM 53.2°F11.8°C 51.0°F10.6°C 92% 1.1 mph N1.8 kmh N 1.6 mph2.6 kmh 30.04 in1017.3 mb 0.00 in0.0 mm 0.00 in/hr0.0 mm/hr 0.01 in0.3 mm
11:15 PM 53.4°F11.9°C 51.2°F10.7°C 92% 1.1 mph NNW1.8 kmh NNW 2.2 mph3.5 kmh 30.04 in1017.3 mb 0.00 in0.0 mm 0.00 in/hr0.0 mm/hr 0.01 in0.3 mm
11:00 PM 53.4°F11.9°C 51.2°F10.7°C 92% 1.4 mph NW2.3 kmh NW 2.2 mph3.5 kmh 30.05 in1017.6 mb 0.00 in0.0 mm 0.00 in/hr0.0 mm/hr 0.01 in0.3 mm
10:45 PM 53.6°F12.0°C 51.6°F10.9°C 93% 1.3 mph NW2.1 kmh NW 2.2 mph3.5 kmh 30.05 in1017.6 mb 0.00 in0.0 mm 0.00 in/hr0.0 mm/hr 0.01 in0.3 mm
10:30 PM 53.4°F11.9°C 51.7°F10.9°C 94% 0.8 mph NNW1.3 kmh NNW 2.2 mph3.5 kmh 30.05 in1017.6 mb 0.00 in0.0 mm 0.00 in/hr0.0 mm/hr 0.01 in0.3 mm
10:15 PM 53.6°F12.0°C 51.9°F11.1°C 94% 0.7 mph NNW1.1 kmh NNW 1.6 mph2.6 kmh 30.05 in1017.6 mb 0.00 in0.0 mm 0.00 in/hr0.0 mm/hr 0.01 in0.3 mm
10:00 PM 53.2°F11.8°C 51.6°F10.9°C 94% 0.5 mph N0.8 kmh N 1.6 mph2.6 kmh 30.06 in1017.9 mb 0.00 in0.0 mm 0.00 in/hr0.0 mm/hr 0.01 in0.3 mm
09:45 PM 53.4°F11.9°C 51.7°F10.9°C 94% 0.8 mph NNW1.3 kmh NNW 1.6 mph2.6 kmh 30.06 in1017.9 mb 0.00 in0.0 mm 0.00 in/hr0.0 mm/hr 0.01 in0.3 mm
09:30 PM 53.6°F12.0°C 51.9°F11.1°C 94% Calm Calm -- 30.06 in1017.9 mb 0.00 in0.0 mm 0.00 in/hr0.0 mm/hr 0.01 in0.3 mm
09:15 PM 53.8°F12.1°C 51.8°F11.0°C 93% 0.1 mph N0.2 kmh N 0.7 mph1.1 kmh 30.07 in1018.3 mb 0.00 in0.0 mm 0.00 in/hr0.0 mm/hr 0.01 in0.3 mm
09:00 PM 53.6°F12.0°C 51.3°F10.7°C 92% 1.0 mph NNW1.6 kmh NNW 1.6 mph2.6 kmh 30.07 in1018.3 mb 0.00 in0.0 mm 0.00 in/hr0.0 mm/hr 0.01 in0.3 mm
08:45 PM 53.6°F12.0°C 51.0°F10.6°C 91% 1.3 mph N2.1 kmh N 1.6 mph2.6 kmh 30.07 in1018.3 mb 0.00 in0.0 mm 0.00 in/hr0.0 mm/hr 0.01 in0.3 mm
08:30 PM 53.4°F11.9°C 50.3°F10.2°C 89% 0.9 mph N1.4 kmh N 1.6 mph2.6 kmh 30.07 in1018.3 mb 0.00 in0.0 mm 0.00 in/hr0.0 mm/hr 0.01 in0.3 mm
08:15 PM 54.0°F12.2°C 50.8°F10.4°C 89% 1.5 mph NW2.4 kmh NW 2.2 mph3.5 kmh 30.08 in1018.6 mb 0.00 in0.0 mm 0.00 in/hr0.0 mm/hr 0.01 in0.3 mm
08:00 PM 53.8°F12.1°C 50.9°F10.5°C 90% 1.8 mph NW2.9 kmh NW 2.2 mph3.5 kmh 30.07 in1018.3 mb 0.00 in0.0 mm 0.00 in/hr0.0 mm/hr 0.01 in0.3 mm
07:45 PM 53.6°F12.0°C 51.0°F10.6°C 91% 1.5 mph N2.4 kmh N 2.2 mph3.5 kmh 30.08 in1018.6 mb 0.00 in0.0 mm 0.00 in/hr0.0 mm/hr 0.01 in0.3 mm
07:30 PM 54.0°F12.2°C 51.1°F10.6°C 90% 1.9 mph NW3.1 kmh NW 2.2 mph3.5 kmh 30.07 in1018.3 mb 0.00 in0.0 mm 0.00 in/hr0.0 mm/hr 0.01 in0.3 mm
07:15 PM 59.0°F15.0°C 56.7°F13.7°C 92% 1.1 mph N1.8 kmh N 1.6 mph2.6 kmh 30.07 in1018.3 mb 0.00 in0.0 mm 0.00 in/hr0.0 mm/hr 0.01 in0.3 mm
07:00 PM 52.7°F11.5°C 50.7°F10.4°C 93% 1.5 mph NNW2.4 kmh NNW 2.2 mph3.5 kmh 30.07 in1018.3 mb 0.00 in0.0 mm 0.00 in/hr0.0 mm/hr 0.01 in0.3 mm
06:45 PM 49.6°F9.8°C 49.4°F9.7°C 99% 1.9 mph NW3.1 kmh NW 2.2 mph3.5 kmh 30.07 in1018.3 mb 0.00 in0.0 mm 0.00 in/hr0.0 mm/hr 0.01 in0.3 mm
06:30 PM 55.2°F12.9°C 55.0°F12.8°C 99% 1.6 mph NW2.6 kmh NW 1.6 mph2.6 kmh 30.07 in1018.3 mb 0.00 in0.0 mm 0.00 in/hr0.0 mm/hr 0.01 in0.3 mm
06:15 PM 55.8°F13.2°C 55.5°F13.1°C 99% 1.1 mph NNW1.8 kmh NNW 1.6 mph2.6 kmh 30.07 in1018.3 mb 0.00 in0.0 mm 0.00 in/hr0.0 mm/hr 0.01 in0.3 mm
06:00 PM 62.4°F16.9°C 62.2°F16.8°C 99% 0.3 mph N0.5 kmh N 1.6 mph2.6 kmh 30.07 in1018.3 mb 0.00 in0.0 mm 0.00 in/hr0.0 mm/hr 0.01 in0.3 mm
05:45 PM 61.2°F16.2°C 60.9°F16.1°C 99% 1.2 mph N1.9 kmh N 1.6 mph2.6 kmh 30.07 in1018.3 mb 0.00 in0.0 mm 0.00 in/hr0.0 mm/hr 0.01 in0.3 mm
05:30 PM 59.2°F15.1°C 58.9°F14.9°C 99% 0.9 mph NNW1.4 kmh NNW 1.6 mph2.6 kmh 30.07 in1018.3 mb 0.00 in0.0 mm 0.00 in/hr0.0 mm/hr 0.01 in0.3 mm
05:15 PM 58.6°F14.8°C 58.7°F14.8°C 100% 0.3 mph S0.5 kmh S 1.6 mph2.6 kmh 30.08 in1018.6 mb 0.00 in0.0 mm 0.00 in/hr0.0 mm/hr 0.01 in0.3 mm
05:00 PM 63.7°F17.6°C 62.8°F17.1°C 97% 0.5 mph SSE0.8 kmh SSE 2.2 mph3.5 kmh 30.08 in1018.6 mb 0.00 in0.0 mm 0.00 in/hr0.0 mm/hr 0.01 in0.3 mm
04:45 PM 63.5°F17.5°C 63.5°F17.5°C 100% 1.7 mph S2.7 kmh S 3.1 mph5.0 kmh 30.08 in1018.6 mb 0.00 in0.0 mm 0.00 in/hr0.0 mm/hr 0.01 in0.3 mm
04:30 PM 60.6°F15.9°C 59.5°F15.3°C 96% 2.7 mph S4.3 kmh S 5.4 mph8.7 kmh 30.08 in1018.6 mb 0.00 in0.0 mm 0.00 in/hr0.0 mm/hr 0.01 in0.3 mm
04:15 PM 61.2°F16.2°C 59.4°F15.2°C 94% 3.1 mph S5.0 kmh S 5.4 mph8.7 kmh 30.08 in1018.6 mb 0.00 in0.0 mm 0.00 in/hr0.0 mm/hr 0.01 in0.3 mm
04:00 PM 67.6°F19.8°C 65.6°F18.7°C 93% 3.7 mph SSE6.0 kmh SSE 6.9 mph11.1 kmh 30.08 in1018.6 mb 0.00 in0.0 mm 0.00 in/hr0.0 mm/hr 0.01 in0.3 mm
03:45 PM 61.7°F16.5°C 59.4°F15.2°C 92% 3.0 mph SSE4.8 kmh SSE 5.4 mph8.7 kmh 30.08 in1018.6 mb 0.00 in0.0 mm 0.00 in/hr0.0 mm/hr 0.01 in0.3 mm
03:30 PM 56.1°F13.4°C 53.2°F11.8°C 90% 2.4 mph SSE3.9 kmh SSE 3.8 mph6.1 kmh 30.08 in1018.6 mb 0.00 in0.0 mm 0.00 in/hr0.0 mm/hr 0.01 in0.3 mm
03:15 PM 63.0°F17.2°C 59.7°F15.4°C 89% 3.8 mph SSE6.1 kmh SSE 5.4 mph8.7 kmh 30.09 in1019.0 mb 0.00 in0.0 mm 0.00 in/hr0.0 mm/hr 0.01 in0.3 mm
03:00 PM 63.3°F17.4°C 59.4°F15.2°C 87% 2.8 mph SE4.5 kmh SE 6.9 mph11.1 kmh 30.09 in1019.0 mb 0.00 in0.0 mm 0.00 in/hr0.0 mm/hr 0.01 in0.3 mm
02:45 PM 60.8°F16.0°C 56.3°F13.5°C 85% 4.5 mph SSW7.2 kmh SSW 6.0 mph9.7 kmh 30.10 in1019.3 mb 0.00 in0.0 mm 0.00 in/hr0.0 mm/hr 0.01 in0.3 mm
02:30 PM 64.4°F18.0°C 59.5°F15.3°C 84% 4.5 mph SSE7.2 kmh SSE 6.0 mph9.7 kmh 30.10 in1019.3 mb 0.00 in0.0 mm 0.00 in/hr0.0 mm/hr 0.01 in0.3 mm
02:15 PM 66.6°F19.2°C 61.9°F16.6°C 85% 3.5 mph S5.6 kmh S 5.4 mph8.7 kmh 30.10 in1019.3 mb 0.00 in0.0 mm 0.00 in/hr0.0 mm/hr 0.01 in0.3 mm
02:00 PM 65.1°F18.4°C 59.5°F15.3°C 82% 3.8 mph SE6.1 kmh SE 5.4 mph8.7 kmh 30.10 in1019.3 mb 0.00 in0.0 mm 0.00 in/hr0.0 mm/hr 0.01 in0.3 mm
01:45 PM 64.8°F18.2°C 59.5°F15.3°C 83% 3.0 mph S4.8 kmh S 4.5 mph7.2 kmh 30.11 in1019.6 mb 0.00 in0.0 mm 0.00 in/hr0.0 mm/hr 0.01 in0.3 mm
01:30 PM 63.5°F17.5°C 58.6°F14.8°C 84% 2.9 mph SSE4.7 kmh SSE 4.5 mph7.2 kmh 30.11 in1019.6 mb 0.00 in0.0 mm 0.00 in/hr0.0 mm/hr 0.01 in0.3 mm
01:15 PM 63.3°F17.4°C 56.4°F13.6°C 78% 2.5 mph E4.0 kmh E 3.8 mph6.1 kmh 30.11 in1019.6 mb 0.00 in0.0 mm 0.00 in/hr0.0 mm/hr 0.01 in0.3 mm
01:00 PM 61.7°F16.5°C 54.4°F12.4°C 77% 2.1 mph ESE3.4 kmh ESE 5.4 mph8.7 kmh 30.12 in1020.0 mb 0.00 in0.0 mm 0.00 in/hr0.0 mm/hr 0.01 in0.3 mm
12:45 PM 63.5°F17.5°C 57.9°F14.4°C 82% 1.5 mph SE2.4 kmh SE 2.2 mph3.5 kmh 30.13 in1020.3 mb 0.00 in0.0 mm 0.00 in/hr0.0 mm/hr 0.01 in0.3 mm
12:30 PM 63.3°F17.4°C 57.7°F14.3°C 82% 2.7 mph S4.3 kmh S 3.8 mph6.1 kmh 30.13 in1020.3 mb 0.00 in0.0 mm 0.00 in/hr0.0 mm/hr 0.01 in0.3 mm
12:15 PM 61.7°F16.5°C 55.8°F13.2°C 81% 2.2 mph SE3.5 kmh SE 3.8 mph6.1 kmh 30.13 in1020.3 mb 0.00 in0.0 mm 0.00 in/hr0.0 mm/hr 0.01 in0.3 mm
12:00 PM 66.4°F19.1°C 58.2°F14.6°C 75% 1.5 mph SSE2.4 kmh SSE 3.1 mph5.0 kmh 30.14 in1020.7 mb 0.00 in0.0 mm 0.00 in/hr0.0 mm/hr 0.01 in0.3 mm
11:45 AM 66.9°F19.4°C 58.8°F14.9°C 75% 3.1 mph W5.0 kmh W 4.5 mph7.2 kmh 30.14 in1020.7 mb 0.00 in0.0 mm 0.00 in/hr0.0 mm/hr 0.01 in0.3 mm
11:30 AM 65.3°F18.5°C 60.0°F15.6°C 83% 3.2 mph SSE5.1 kmh SSE 5.4 mph8.7 kmh 30.15 in1021.0 mb 0.00 in0.0 mm 0.00 in/hr0.0 mm/hr 0.01 in0.3 mm
11:15 AM 60.4°F15.8°C 55.6°F13.1°C 84% 1.8 mph SSE2.9 kmh SSE 3.1 mph5.0 kmh 30.15 in1021.0 mb 0.00 in0.0 mm 0.00 in/hr0.0 mm/hr 0.01 in0.3 mm
11:00 AM 63.9°F17.7°C 59.3°F15.2°C 85% 1.8 mph SE2.9 kmh SE 3.1 mph5.0 kmh 30.16 in1021.3 mb 0.00 in0.0 mm 0.00 in/hr0.0 mm/hr 0.01 in0.3 mm
10:45 AM 62.8°F17.1°C 57.2°F14.0°C 82% 4.6 mph SSW7.4 kmh SSW 6.0 mph9.7 kmh 30.16 in1021.3 mb 0.00 in0.0 mm 0.00 in/hr0.0 mm/hr 0.01 in0.3 mm
10:30 AM 65.5°F18.6°C 57.7°F14.3°C 76% 2.4 mph SE3.9 kmh SE 5.4 mph8.7 kmh 30.16 in1021.3 mb 0.01 in0.3 mm 0.00 in/hr0.0 mm/hr 0.01 in0.3 mm
10:15 AM 66.0°F18.9°C 56.4°F13.6°C 71% 2.1 mph E3.4 kmh E 3.1 mph5.0 kmh 30.17 in1021.7 mb 0.01 in0.3 mm 0.00 in/hr0.0 mm/hr 0.01 in0.3 mm
10:00 AM 60.6°F15.9°C 53.4°F11.9°C 77% 1.9 mph SE3.1 kmh SE 3.8 mph6.1 kmh 30.17 in1021.7 mb 0.01 in0.3 mm 0.00 in/hr0.0 mm/hr 0.01 in0.3 mm
09:45 AM 64.2°F17.9°C 59.0°F15.0°C 83% 2.7 mph SW4.3 kmh SW 5.4 mph8.7 kmh 30.18 in1022.0 mb 0.01 in0.3 mm 0.04 in/hr1.0 mm/hr 0.01 in0.3 mm
09:30 AM 62.6°F17.0°C 59.3°F15.2°C 89% 1.7 mph S2.7 kmh S 3.1 mph5.0 kmh 30.18 in1022.0 mb 0.00 in0.0 mm 0.00 in/hr0.0 mm/hr 0.00 in0.0 mm
09:15 AM 61.9°F16.6°C 59.5°F15.3°C 92% 1.2 mph S1.9 kmh S 2.2 mph3.5 kmh 30.18 in1022.0 mb 0.00 in0.0 mm 0.00 in/hr0.0 mm/hr 0.00 in0.0 mm
09:00 AM 62.2°F16.8°C 59.9°F15.5°C 92% 1.9 mph SE3.1 kmh SE 4.5 mph7.2 kmh 30.18 in1022.0 mb 0.00 in0.0 mm 0.00 in/hr0.0 mm/hr 0.00 in0.0 mm
08:45 AM 61.3°F16.3°C 59.6°F15.3°C 94% 1.3 mph SSW2.1 kmh SSW 2.2 mph3.5 kmh 30.18 in1022.0 mb 0.00 in0.0 mm 0.00 in/hr0.0 mm/hr 0.00 in0.0 mm
08:30 AM 60.3°F15.7°C 59.1°F15.1°C 96% 1.4 mph S2.3 kmh S 3.1 mph5.0 kmh 30.18 in1022.0 mb 0.00 in0.0 mm 0.00 in/hr0.0 mm/hr 0.00 in0.0 mm
08:15 AM 62.2°F16.8°C 62.3°F16.8°C 100% 1.1 mph S1.8 kmh S 2.2 mph3.5 kmh 30.18 in1022.0 mb 0.00 in0.0 mm 0.00 in/hr0.0 mm/hr 0.00 in0.0 mm
08:00 AM 60.6°F15.9°C 60.4°F15.8°C 99% 1.7 mph SSE2.7 kmh SSE 3.8 mph6.1 kmh 30.18 in1022.0 mb 0.00 in0.0 mm 0.00 in/hr0.0 mm/hr 0.00 in0.0 mm
07:45 AM 52.5°F11.4°C 52.3°F11.3°C 99% 1.3 mph W2.1 kmh W 2.2 mph3.5 kmh 30.18 in1022.0 mb 0.00 in0.0 mm 0.00 in/hr0.0 mm/hr 0.00 in0.0 mm
07:30 AM 58.1°F14.5°C 57.8°F14.3°C 99% 0.7 mph NW1.1 kmh NW 1.6 mph2.6 kmh 30.17 in1021.7 mb 0.00 in0.0 mm 0.00 in/hr0.0 mm/hr 0.00 in0.0 mm
07:15 AM 52.0°F11.1°C 51.7°F10.9°C 99% 0.7 mph NW1.1 kmh NW 1.6 mph2.6 kmh 30.17 in1021.7 mb 0.00 in0.0 mm 0.00 in/hr0.0 mm/hr 0.00 in0.0 mm
07:00 AM 56.8°F13.8°C 56.6°F13.7°C 99% 0.2 mph N0.3 kmh N 1.6 mph2.6 kmh 30.17 in1021.7 mb 0.00 in0.0 mm 0.00 in/hr0.0 mm/hr 0.00 in0.0 mm
06:45 AM 55.9°F13.3°C 55.7°F13.2°C 99% 0.5 mph W0.8 kmh W 1.6 mph2.6 kmh 30.16 in1021.3 mb 0.00 in0.0 mm 0.00 in/hr0.0 mm/hr 0.00 in0.0 mm
06:30 AM 61.2°F16.2°C 60.9°F16.1°C 99% 0.8 mph NW1.3 kmh NW 1.6 mph2.6 kmh 30.16 in1021.3 mb 0.00 in0.0 mm 0.00 in/hr0.0 mm/hr 0.00 in0.0 mm
06:15 AM 57.2°F14.0°C 56.9°F13.8°C 99% 1.2 mph NW1.9 kmh NW 1.6 mph2.6 kmh 30.16 in1021.3 mb 0.00 in0.0 mm 0.00 in/hr0.0 mm/hr 0.00 in0.0 mm
06:00 AM 55.6°F13.1°C 55.3°F12.9°C 99% 1.1 mph NW1.8 kmh NW 1.6 mph2.6 kmh 30.16 in1021.3 mb 0.00 in0.0 mm 0.00 in/hr0.0 mm/hr 0.00 in0.0 mm
05:45 AM 50.4°F10.2°C 50.1°F10.1°C 99% 0.6 mph NW1.0 kmh NW 1.6 mph2.6 kmh 30.15 in1021.0 mb 0.00 in0.0 mm 0.00 in/hr0.0 mm/hr 0.00 in0.0 mm
05:30 AM 50.4°F10.2°C 50.1°F10.1°C 99% 1.0 mph NW1.6 kmh NW 1.6 mph2.6 kmh 30.16 in1021.3 mb 0.00 in0.0 mm 0.00 in/hr0.0 mm/hr 0.00 in0.0 mm
05:15 AM 55.8°F13.2°C 55.5°F13.1°C 99% 0.5 mph S0.8 kmh S 2.2 mph3.5 kmh 30.16 in1021.3 mb 0.00 in0.0 mm 0.00 in/hr0.0 mm/hr 0.00 in0.0 mm
05:00 AM 50.2°F10.1°C 49.9°F9.9°C 99% 0.5 mph W0.8 kmh W 0.7 mph1.1 kmh 30.16 in1021.3 mb 0.00 in0.0 mm 0.00 in/hr0.0 mm/hr 0.00 in0.0 mm
04:45 AM 58.3°F14.6°C 58.0°F14.4°C 99% 1.1 mph NW1.8 kmh NW 1.6 mph2.6 kmh 30.16 in1021.3 mb 0.00 in0.0 mm 0.00 in/hr0.0 mm/hr 0.00 in0.0 mm
04:30 AM 60.1°F15.6°C 59.8°F15.4°C 99% 0.3 mph NW0.5 kmh NW 1.6 mph2.6 kmh 30.17 in1021.7 mb 0.00 in0.0 mm 0.00 in/hr0.0 mm/hr 0.00 in0.0 mm
04:15 AM 55.0°F12.8°C 54.8°F12.7°C 99% 0.5 mph NW0.8 kmh NW 1.6 mph2.6 kmh 30.17 in1021.7 mb 0.00 in0.0 mm 0.00 in/hr0.0 mm/hr 0.00 in0.0 mm
04:00 AM 60.1°F15.6°C 59.8°F15.4°C 99% 1.1 mph NW1.8 kmh NW 1.6 mph2.6 kmh 30.17 in1021.7 mb 0.00 in0.0 mm 0.00 in/hr0.0 mm/hr 0.00 in0.0 mm
03:45 AM 55.2°F12.9°C 55.0°F12.8°C 99% 1.3 mph NW2.1 kmh NW 1.6 mph2.6 kmh 30.17 in1021.7 mb 0.00 in0.0 mm 0.00 in/hr0.0 mm/hr 0.00 in0.0 mm
03:30 AM 54.5°F12.5°C 54.2°F12.3°C 99% Calm Calm -- 30.18 in1022.0 mb 0.00 in0.0 mm 0.00 in/hr0.0 mm/hr 0.00 in0.0 mm
03:15 AM 54.5°F12.5°C 54.2°F12.3°C 99% Calm Calm -- 30.18 in1022.0 mb 0.00 in0.0 mm 0.00 in/hr0.0 mm/hr 0.00 in0.0 mm
03:00 AM 54.0°F12.2°C 53.7°F12.1°C 99% Calm Calm -- 30.18 in1022.0 mb 0.00 in0.0 mm 0.00 in/hr0.0 mm/hr 0.00 in0.0 mm
02:45 AM 54.0°F12.2°C 53.7°F12.1°C 99% Calm Calm -- 30.18 in1022.0 mb 0.00 in0.0 mm 0.00 in/hr0.0 mm/hr 0.00 in0.0 mm
02:30 AM 53.8°F12.1°C 53.5°F11.9°C 99% Calm Calm -- 30.18 in1022.0 mb 0.00 in0.0 mm 0.00 in/hr0.0 mm/hr 0.00 in0.0 mm
02:15 AM 53.8°F12.1°C 53.5°F11.9°C 99% Calm Calm -- 30.18 in1022.0 mb 0.00 in0.0 mm 0.00 in/hr0.0 mm/hr 0.00 in0.0 mm
02:00 AM 53.8°F12.1°C 53.5°F11.9°C 99% Calm Calm -- 30.19 in1022.4 mb 0.00 in0.0 mm 0.00 in/hr0.0 mm/hr 0.00 in0.0 mm
01:45 AM 54.0°F12.2°C 53.7°F12.1°C 99% Calm Calm -- 30.19 in1022.4 mb 0.00 in0.0 mm 0.00 in/hr0.0 mm/hr 0.00 in0.0 mm
01:30 AM 54.1°F12.3°C 53.9°F12.2°C 99% Calm Calm -- 30.20 in1022.7 mb 0.00 in0.0 mm 0.00 in/hr0.0 mm/hr 0.00 in0.0 mm
01:15 AM 54.0°F12.2°C 53.7°F12.1°C 99% Calm Calm -- 30.20 in1022.7 mb 0.00 in0.0 mm 0.00 in/hr0.0 mm/hr 0.00 in0.0 mm
01:00 AM 54.1°F12.3°C 53.9°F12.2°C 99% Calm Calm -- 30.20 in1022.7 mb 0.00 in0.0 mm 0.00 in/hr0.0 mm/hr 0.00 in0.0 mm
12:45 AM 54.1°F12.3°C 53.9°F12.2°C 99% 0.3 mph NW0.5 kmh NW 1.6 mph2.6 kmh 30.20 in1022.7 mb 0.00 in0.0 mm 0.00 in/hr0.0 mm/hr 0.00 in0.0 mm
12:30 AM 54.0°F12.2°C 53.7°F12.1°C 99% 0.6 mph NW1.0 kmh NW 1.6 mph2.6 kmh 30.20 in1022.7 mb 0.00 in0.0 mm 0.00 in/hr0.0 mm/hr 0.00 in0.0 mm
12:15 AM 54.1°F12.3°C 53.9°F12.2°C 99% Calm Calm -- 30.21 in1023.0 mb 0.00 in0.0 mm 0.00 in/hr0.0 mm/hr 0.00 in0.0 mm
12:00 AM 54.1°F12.3°C 53.9°F12.2°C 99% 0.1 mph N0.2 kmh N 0.7 mph1.1 kmh 30.21 in1023.0 mb 0.00 in0.0 mm 0.00 in/hr0.0 mm/hr 0.00 in0.0 mm